createdAt,value
2022-08-08T00:00:51.337Z,1028.90
2022-08-08T00:10:00.136Z,1028.91
2022-08-08T00:20:00.119Z,1028.88
2022-08-08T00:30:00.143Z,1028.89
2022-08-08T00:41:08.577Z,1028.93
2022-08-08T00:50:01.450Z,1028.91
2022-08-08T01:00:00.125Z,1028.96
2022-08-08T01:10:01.695Z,1028.95
2022-08-08T01:20:02.333Z,1028.89
2022-08-08T01:30:01.660Z,1028.90
2022-08-08T01:40:00.209Z,1028.88
2022-08-08T01:50:00.091Z,1028.83
2022-08-08T02:00:00.901Z,1028.75
2022-08-08T02:10:02.895Z,1028.70
2022-08-08T02:20:08.125Z,1028.72
2022-08-08T02:30:00.081Z,1028.74
2022-08-08T02:40:00.640Z,1028.77
2022-08-08T02:50:00.131Z,1028.82
2022-08-08T03:00:15.796Z,1028.82
2022-08-08T03:10:00.142Z,1028.92
2022-08-08T03:20:00.082Z,1028.95
2022-08-08T03:30:00.125Z,1029.01
2022-08-08T03:40:02.054Z,1028.99
2022-08-08T03:50:02.086Z,1029.13
2022-08-08T04:00:03.054Z,1029.09
2022-08-08T04:10:04.995Z,1029.15
2022-08-08T04:20:01.885Z,1029.24
2022-08-08T04:30:00.690Z,1029.29
2022-08-08T04:40:06.217Z,1029.44
2022-08-08T04:50:01.491Z,1029.50
2022-08-08T05:00:00.126Z,1029.48
2022-08-08T05:10:00.146Z,1029.53
2022-08-08T05:20:04.837Z,1029.50
2022-08-08T05:30:00.120Z,1029.50
2022-08-08T05:40:00.134Z,1029.56
2022-08-08T05:50:00.090Z,1029.59
2022-08-08T06:00:19.772Z,1029.66
2022-08-08T06:10:02.038Z,1029.69
2022-08-08T06:20:00.114Z,1029.75
2022-08-08T06:30:02.082Z,1029.77
2022-08-08T06:40:00.678Z,1029.80
2022-08-08T06:50:00.157Z,1029.81
2022-08-08T07:00:01.856Z,1029.87
2022-08-08T07:10:00.824Z,1029.91
2022-08-08T07:20:00.309Z,1029.89
2022-08-08T07:30:05.860Z,1029.89
2022-08-08T07:40:00.167Z,1029.91
2022-08-08T07:50:00.114Z,1030.01
2022-08-08T08:00:00.128Z,1030.05
2022-08-08T08:10:00.108Z,1030.09
2022-08-08T08:20:00.122Z,1030.08
2022-08-08T08:30:00.134Z,1030.08
2022-08-08T08:40:02.744Z,1030.15
2022-08-08T08:50:00.124Z,1030.15
2022-08-08T09:00:01.823Z,1030.08
2022-08-08T09:10:00.108Z,1030.09
2022-08-08T09:21:54.635Z,1030.02
2022-08-08T09:30:00.107Z,1029.96
2022-08-08T09:40:00.172Z,1029.88
2022-08-08T09:50:01.547Z,1029.93
2022-08-08T10:10:01.654Z,1029.83
2022-08-08T10:20:00.542Z,1029.79
2022-08-08T10:30:00.146Z,1029.70
2022-08-08T10:40:02.559Z,1029.62
2022-08-08T10:50:02.715Z,1029.61
2022-08-08T11:00:00.117Z,1029.56
2022-08-08T11:10:00.121Z,1029.57
2022-08-08T11:20:02.844Z,1029.59
2022-08-08T11:30:04.291Z,1029.52
2022-08-08T11:40:00.170Z,1029.48
2022-08-08T11:50:00.109Z,1029.48
2022-08-08T12:00:06.067Z,1029.41
2022-08-08T12:10:02.823Z,1029.43
2022-08-08T12:20:00.136Z,1029.28
2022-08-08T12:30:01.994Z,1029.26
2022-08-08T12:40:02.543Z,1029.29
2022-08-08T12:50:00.085Z,1029.15
2022-08-08T13:00:03.893Z,1029.07
2022-08-08T13:10:04.604Z,1029.07
2022-08-08T13:20:04.170Z,1028.98
2022-08-08T13:30:00.252Z,1028.99
2022-08-08T13:40:00.182Z,1029.03
2022-08-08T13:50:34.484Z,1029.09
2022-08-08T14:00:00.151Z,1029.06
2022-08-08T14:10:02.640Z,1028.99
2022-08-08T14:20:06.007Z,1028.99
2022-08-08T14:30:00.144Z,1028.98
2022-08-08T14:40:06.224Z,1028.94
2022-08-08T14:50:07.118Z,1028.90
2022-08-08T15:00:00.139Z,1028.94
2022-08-08T15:10:00.153Z,1028.93
2022-08-08T15:20:00.124Z,1028.88
2022-08-08T15:30:00.153Z,1028.85
2022-08-08T15:40:00.179Z,1028.74
2022-08-08T15:50:00.166Z,1028.68
2022-08-08T16:00:07.180Z,1028.68
2022-08-08T16:13:01.673Z,1028.78
2022-08-08T16:20:00.947Z,1028.81
2022-08-08T16:30:08.621Z,1028.75
2022-08-08T16:40:03.167Z,1028.78
2022-08-08T16:50:01.576Z,1028.79
2022-08-08T17:00:01.503Z,1028.87
2022-08-08T17:10:00.114Z,1028.91
2022-08-08T17:20:00.126Z,1028.94
2022-08-08T17:30:00.107Z,1029.03
2022-08-08T17:40:05.349Z,1029.06
2022-08-08T17:50:00.631Z,1029.23
2022-08-08T18:00:01.811Z,1029.26
2022-08-08T18:10:00.134Z,1029.30
2022-08-08T18:20:36.379Z,1029.32
2022-08-08T18:30:00.138Z,1029.48
2022-08-08T18:40:00.183Z,1029.71
2022-08-08T18:50:02.373Z,1029.94
2022-08-08T19:00:00.143Z,1030.06
2022-08-08T19:10:13.437Z,1030.19
2022-08-08T19:20:01.924Z,1030.30
2022-08-08T19:30:00.112Z,1030.37
2022-08-08T19:40:00.095Z,1030.47
2022-08-08T19:50:02.396Z,1030.47
2022-08-08T20:00:00.096Z,1030.58
2022-08-08T20:20:00.109Z,1030.78
2022-08-08T20:30:01.325Z,1030.87
2022-08-08T20:40:00.165Z,1030.88
2022-08-08T20:50:01.218Z,1030.93
2022-08-08T21:00:00.148Z,1030.94
2022-08-08T21:10:02.510Z,1030.95
2022-08-08T21:20:00.152Z,1030.97
2022-08-08T21:30:03.134Z,1031.11
2022-08-08T21:40:00.319Z,1031.16
2022-08-08T21:50:00.168Z,1031.16
2022-08-08T22:00:02.162Z,1031.16
2022-08-08T22:10:01.642Z,1031.14
2022-08-08T22:20:11.832Z,1031.16
2022-08-08T22:31:40.986Z,1031.22
2022-08-08T22:40:01.801Z,1031.27
2022-08-08T22:50:01.018Z,1031.33
2022-08-08T23:00:00.139Z,1031.35
2022-08-08T23:10:00.121Z,1031.31
2022-08-08T23:20:00.104Z,1031.32
2022-08-08T23:30:00.148Z,1031.33
2022-08-08T23:40:00.237Z,1031.36
2022-08-08T23:50:01.243Z,1031.33
